createdAt,value
2018-01-30T00:02:11.366Z,18.02
2018-01-30T00:04:39.475Z,19.20
2018-01-30T00:07:08.348Z,16.10
2018-01-30T00:09:36.499Z,16.48
2018-01-30T00:12:04.609Z,16.00
2018-01-30T00:14:33.492Z,17.98
2018-01-30T00:17:02.382Z,18.00
2018-01-30T00:19:31.265Z,17.30
2018-01-30T00:22:00.148Z,22.10
2018-01-30T00:24:28.311Z,16.70
2018-01-30T00:26:56.424Z,17.00
2018-01-30T00:29:25.293Z,21.15
2018-01-30T00:31:54.188Z,16.85
2018-01-30T00:34:23.061Z,14.68
2018-01-30T00:36:51.177Z,22.00
2018-01-30T00:39:19.539Z,13.55
2018-01-30T00:41:48.433Z,16.75
2018-01-30T00:44:16.564Z,19.08
2018-01-30T00:46:44.667Z,18.58
2018-01-30T00:49:13.563Z,18.95
2018-01-30T00:51:42.451Z,17.58
2018-01-30T00:54:11.325Z,13.70
2018-01-30T00:56:39.431Z,17.10
2018-01-30T00:59:07.571Z,15.23
2018-01-30T01:01:36.460Z,15.85
2018-01-30T01:04:04.577Z,19.15
2018-01-30T01:06:32.733Z,19.42
2018-01-30T01:09:00.803Z,15.13
2018-01-30T01:11:28.927Z,16.10
2018-01-30T01:13:57.047Z,15.52
2018-01-30T01:16:25.151Z,16.10
2018-01-30T01:18:53.265Z,14.93
2018-01-30T01:21:22.169Z,16.42
2018-01-30T01:23:51.059Z,17.65
2018-01-30T01:26:19.943Z,14.25
2018-01-30T01:28:48.819Z,13.75
2018-01-30T01:31:16.951Z,17.83
2018-01-30T01:33:45.075Z,14.25
2018-01-30T01:36:13.271Z,14.65
2018-01-30T01:38:42.135Z,13.93
2018-01-30T01:41:10.260Z,16.08
2018-01-30T01:43:38.375Z,15.68
2018-01-30T01:46:06.487Z,16.25
2018-01-30T01:48:34.619Z,18.85
2018-01-30T01:51:04.237Z,15.73
2018-01-30T01:53:33.128Z,17.60
2018-01-30T01:56:01.235Z,17.77
2018-01-30T01:58:29.347Z,13.27
2018-01-30T02:00:57.467Z,18.85
2018-01-30T02:03:25.589Z,15.00
2018-01-30T02:05:53.707Z,16.00
2018-01-30T02:08:21.810Z,18.23
2018-01-30T02:10:49.918Z,16.58
2018-01-30T02:13:18.074Z,14.60
2018-01-30T02:15:46.183Z,16.83
2018-01-30T02:18:15.055Z,16.42
2018-01-30T02:20:43.171Z,19.08
2018-01-30T02:23:11.307Z,17.23
2018-01-30T02:25:39.512Z,15.35
2018-01-30T02:28:07.623Z,15.30
2018-01-30T02:30:35.738Z,15.18
2018-01-30T02:33:04.666Z,18.00
2018-01-30T02:35:32.793Z,14.27
2018-01-30T02:38:01.673Z,18.52
2018-01-30T02:40:29.874Z,14.20
2018-01-30T02:42:58.980Z,14.70
2018-01-30T02:45:27.148Z,17.08
2018-01-30T02:47:55.320Z,15.88
2018-01-30T02:50:23.910Z,16.75
2018-01-30T02:52:52.027Z,15.68
2018-01-30T02:55:20.138Z,16.92
2018-01-30T02:57:49.084Z,18.02
2018-01-30T03:00:17.196Z,17.40
2018-01-30T03:02:46.096Z,19.92
2018-01-30T03:05:14.966Z,23.12
2018-01-30T03:07:43.878Z,27.02
2018-01-30T03:10:12.792Z,24.75
2018-01-30T03:12:40.914Z,26.42
2018-01-30T03:15:09.026Z,27.08
2018-01-30T03:17:37.170Z,24.65
2018-01-30T03:20:06.061Z,30.40
2018-01-30T03:22:34.170Z,25.50
2018-01-30T03:25:02.290Z,25.58
2018-01-30T03:27:30.402Z,25.00
2018-01-30T03:29:58.596Z,25.77
2018-01-30T03:32:26.744Z,25.67
2018-01-30T03:34:54.846Z,25.27
2018-01-30T03:37:23.018Z,29.80
2018-01-30T03:39:51.154Z,30.80
2018-01-30T03:42:19.262Z,31.33
2018-01-30T03:44:47.394Z,30.80
2018-01-30T03:47:16.290Z,31.40
2018-01-30T03:49:44.398Z,30.37
2018-01-30T03:52:12.514Z,30.37
2018-01-30T03:54:41.416Z,30.25
2018-01-30T03:57:10.300Z,26.73
2018-01-30T03:59:39.191Z,33.58
2018-01-30T04:02:08.200Z,29.17
2018-01-30T04:04:36.318Z,25.65
2018-01-30T04:07:04.458Z,28.45
2018-01-30T04:09:32.563Z,30.95
2018-01-30T04:12:00.718Z,26.40
2018-01-30T04:14:28.862Z,30.35
2018-01-30T04:16:56.983Z,28.50
2018-01-30T04:19:25.110Z,32.63
2018-01-30T04:21:53.272Z,31.05
2018-01-30T04:24:22.147Z,32.83
2018-01-30T04:26:50.444Z,27.70
2018-01-30T04:29:19.315Z,35.45
2018-01-30T04:31:48.194Z,31.80
2018-01-30T04:34:17.831Z,34.97
2018-01-30T04:36:46.001Z,32.20
2018-01-30T04:39:14.878Z,28.50
2018-01-30T04:41:42.991Z,28.50
2018-01-30T04:44:11.131Z,28.10
2018-01-30T04:46:40.033Z,31.90
2018-01-30T04:49:08.907Z,32.63
2018-01-30T04:51:37.795Z,29.30
2018-01-30T04:54:05.927Z,27.92
2018-01-30T04:56:34.159Z,29.92
2018-01-30T04:59:02.327Z,28.02
2018-01-30T05:01:31.205Z,31.60
2018-01-30T05:04:00.087Z,35.55
2018-01-30T05:06:28.219Z,39.72
2018-01-30T05:08:56.383Z,37.22
2018-01-30T05:11:24.439Z,31.60
2018-01-30T05:13:52.551Z,35.88
2018-01-30T05:16:20.701Z,31.10
2018-01-30T05:18:48.815Z,52.47
2018-01-30T05:21:16.923Z,39.47
2018-01-30T05:23:45.035Z,30.05
2018-01-30T05:26:13.161Z,32.17
2018-01-30T05:28:42.267Z,33.65
2018-01-30T05:31:10.375Z,33.10
2018-01-30T05:33:38.499Z,28.15
2018-01-30T05:36:07.391Z,37.08
2018-01-30T05:38:35.542Z,26.60
2018-01-30T05:41:04.523Z,32.95
2018-01-30T05:43:32.632Z,32.45
2018-01-30T05:46:00.754Z,29.60
2018-01-30T05:48:28.875Z,27.95
2018-01-30T05:50:57.750Z,33.35
2018-01-30T05:53:26.630Z,30.40
2018-01-30T05:55:54.837Z,26.52
2018-01-30T05:58:23.723Z,32.00
2018-01-30T06:00:51.843Z,32.25
2018-01-30T06:03:19.936Z,30.98
2018-01-30T06:05:48.067Z,37.92
2018-01-30T06:08:16.190Z,34.85
2018-01-30T06:10:45.071Z,33.42
2018-01-30T06:13:13.262Z,29.92
2018-01-30T06:15:42.176Z,37.97
2018-01-30T06:18:10.311Z,29.92
2018-01-30T06:20:38.412Z,28.95
2018-01-30T06:23:06.520Z,34.65
2018-01-30T06:25:34.644Z,32.65
2018-01-30T06:28:03.567Z,36.72
2018-01-30T06:30:31.708Z,37.30
2018-01-30T06:33:00.802Z,43.75
2018-01-30T06:35:29.672Z,50.75
2018-01-30T06:37:57.799Z,62.45
2018-01-30T06:40:26.141Z,58.03
2018-01-30T06:42:55.010Z,60.58
2018-01-30T06:45:23.206Z,42.25
2018-01-30T06:47:52.134Z,81.80
2018-01-30T06:50:20.266Z,62.50
2018-01-30T06:52:49.144Z,95.65
2018-01-30T06:55:18.026Z,83.68
2018-01-30T06:57:46.254Z,120.37
2018-01-30T07:00:14.392Z,190.93
2018-01-30T07:02:43.286Z,80.03
2018-01-30T07:05:12.224Z,119.10
2018-01-30T07:07:40.454Z,140.23
2018-01-30T07:10:09.347Z,70.10
2018-01-30T07:12:37.471Z,70.37
2018-01-30T07:15:05.579Z,43.38
2018-01-30T07:17:34.447Z,98.62
2018-01-30T07:20:02.574Z,117.62
2018-01-30T07:22:30.680Z,55.47
2018-01-30T07:24:58.821Z,82.75
2018-01-30T07:27:27.073Z,83.90
2018-01-30T07:29:55.212Z,89.75
2018-01-30T07:32:23.385Z,78.53
2018-01-30T07:34:51.497Z,58.87
2018-01-30T07:37:19.611Z,44.58
2018-01-30T07:39:47.768Z,49.88
2018-01-30T07:42:15.880Z,47.95
2018-01-30T07:44:43.979Z,47.40
2018-01-30T07:47:12.104Z,52.97
2018-01-30T07:49:40.228Z,46.60
2018-01-30T07:52:08.397Z,52.83
2018-01-30T07:54:36.524Z,43.22
2018-01-30T07:57:04.635Z,48.87
2018-01-30T07:59:33.645Z,57.13
2018-01-30T08:02:02.508Z,41.05
2018-01-30T08:04:31.375Z,48.47
2018-01-30T08:06:59.510Z,43.55
2018-01-30T08:09:27.685Z,45.03
2018-01-30T08:11:55.763Z,62.00
2018-01-30T08:14:23.967Z,86.32
2018-01-30T08:16:52.076Z,40.88
2018-01-30T08:19:20.207Z,51.10
2018-01-30T08:21:48.375Z,42.40
2018-01-30T08:24:16.499Z,47.55
2018-01-30T08:26:44.671Z,47.95
2018-01-30T08:29:12.795Z,48.20
2018-01-30T08:31:40.907Z,48.22
2018-01-30T08:34:10.012Z,48.95
2018-01-30T08:36:38.147Z,39.92
2018-01-30T08:39:07.035Z,43.92
2018-01-30T08:41:35.149Z,52.55
2018-01-30T08:44:03.283Z,42.05
2018-01-30T08:46:31.387Z,42.17
2018-01-30T08:48:59.655Z,47.83
2018-01-30T08:51:28.522Z,44.28
2018-01-30T08:53:56.630Z,43.53
2018-01-30T08:56:25.299Z,48.25
2018-01-30T08:58:54.187Z,42.58
2018-01-30T09:01:23.073Z,41.83
2018-01-30T09:03:51.951Z,45.58
2018-01-30T09:06:20.075Z,42.05
2018-01-30T09:08:48.235Z,42.85
2018-01-30T09:11:16.347Z,44.38
2018-01-30T09:13:44.669Z,41.03
2018-01-30T09:16:13.551Z,42.10
2018-01-30T09:18:42.441Z,43.25
2018-01-30T09:21:11.311Z,47.03
2018-01-30T09:23:39.511Z,40.33
2018-01-30T09:26:08.507Z,40.92
2018-01-30T09:28:37.454Z,43.42
2018-01-30T09:31:05.579Z,44.83
2018-01-30T09:33:33.687Z,40.85
2018-01-30T09:36:01.795Z,43.92
2018-01-30T09:38:30.713Z,43.67
2018-01-30T09:40:59.155Z,43.60
2018-01-30T09:43:27.277Z,45.35
2018-01-30T09:45:55.386Z,43.50
2018-01-30T09:48:23.506Z,45.90
2018-01-30T09:50:51.870Z,41.45
2018-01-30T09:53:20.762Z,39.38
2018-01-30T09:55:49.664Z,40.80
2018-01-30T09:58:17.809Z,34.85
2018-01-30T10:00:45.928Z,38.58
2018-01-30T10:03:14.082Z,36.75
2018-01-30T10:05:42.210Z,33.10
2018-01-30T10:08:10.364Z,32.72
2018-01-30T10:10:38.478Z,34.03
2018-01-30T10:13:07.386Z,32.97
2018-01-30T10:15:35.502Z,34.60
2018-01-30T10:18:03.612Z,31.83
2018-01-30T10:20:32.547Z,36.63
2018-01-30T10:23:00.642Z,28.87
2018-01-30T10:25:28.814Z,32.72
2018-01-30T10:27:56.920Z,28.17
2018-01-30T10:30:25.802Z,29.60
2018-01-30T10:32:53.918Z,32.58
2018-01-30T10:35:22.026Z,33.45
2018-01-30T10:37:50.194Z,34.97
2018-01-30T10:40:18.414Z,30.23
2018-01-30T10:42:47.291Z,31.12
2018-01-30T10:45:16.228Z,33.22
2018-01-30T10:47:44.373Z,30.83
2018-01-30T10:50:12.508Z,32.22
2018-01-30T10:52:40.646Z,31.70
2018-01-30T10:55:08.762Z,31.98
2018-01-30T10:57:36.930Z,30.37
2018-01-30T11:00:05.054Z,28.40
2018-01-30T11:02:33.204Z,29.75
2018-01-30T11:05:02.080Z,27.70
2018-01-30T11:07:30.968Z,30.35
2018-01-30T11:09:59.153Z,29.37
2018-01-30T11:12:28.050Z,28.10
2018-01-30T11:14:56.956Z,27.65
2018-01-30T11:17:25.088Z,27.05
2018-01-30T11:19:53.263Z,29.37
2018-01-30T11:22:21.459Z,27.75
2018-01-30T11:24:50.387Z,28.00
2018-01-30T11:27:18.553Z,29.17
2018-01-30T11:29:46.655Z,30.83
2018-01-30T11:32:14.767Z,23.85
2018-01-30T11:34:42.943Z,34.47
2018-01-30T11:37:11.067Z,27.52
2018-01-30T11:39:39.260Z,23.65
2018-01-30T11:42:07.343Z,27.60
2018-01-30T11:44:36.223Z,24.60
2018-01-30T11:47:04.349Z,25.58
2018-01-30T11:49:32.699Z,29.60
2018-01-30T11:52:01.577Z,27.73
2018-01-30T11:54:30.498Z,24.15
2018-01-30T11:56:58.627Z,26.15
2018-01-30T11:59:27.555Z,25.95
2018-01-30T12:01:55.722Z,20.88
2018-01-30T12:04:23.827Z,15.68
2018-01-30T12:06:51.946Z,15.05
2018-01-30T12:09:20.143Z,17.17
2018-01-30T12:11:48.337Z,14.07
2018-01-30T12:14:16.443Z,16.83
2018-01-30T12:16:44.559Z,16.92
2018-01-30T12:19:12.735Z,14.00
2018-01-30T12:21:40.895Z,15.70
2018-01-30T12:24:09.770Z,14.02
2018-01-30T12:26:39.421Z,14.07
2018-01-30T12:29:07.551Z,15.48
2018-01-30T12:31:35.687Z,15.27
2018-01-30T12:34:03.798Z,18.42
2018-01-30T12:36:32.671Z,11.88
2018-01-30T12:39:00.838Z,12.63
2018-01-30T12:41:28.999Z,10.80
2018-01-30T12:43:57.111Z,12.32
2018-01-30T12:46:26.014Z,18.62
2018-01-30T12:48:54.895Z,15.60
2018-01-30T12:51:23.835Z,11.77
2018-01-30T12:53:51.940Z,9.35
2018-01-30T12:56:20.105Z,11.50
2018-01-30T12:58:48.224Z,11.38
2018-01-30T13:01:16.390Z,12.98
2018-01-30T13:03:44.506Z,11.65
2018-01-30T13:06:12.611Z,14.57
2018-01-30T13:08:40.808Z,10.82
2018-01-30T13:11:08.969Z,11.38
2018-01-30T13:13:37.870Z,13.02
2018-01-30T13:16:06.864Z,13.25
2018-01-30T13:18:34.970Z,10.75
2018-01-30T13:21:03.134Z,13.55
2018-01-30T13:23:31.234Z,10.95
2018-01-30T13:25:59.339Z,10.48
2018-01-30T13:28:28.344Z,14.10
2018-01-30T13:30:57.226Z,15.52
2018-01-30T13:33:26.096Z,13.13
2018-01-30T13:35:54.966Z,13.15
2018-01-30T13:38:23.128Z,17.60
2018-01-30T13:40:51.362Z,14.32
2018-01-30T13:43:20.232Z,11.12
2018-01-30T13:45:49.954Z,10.13
2018-01-30T13:48:18.844Z,11.88
2018-01-30T13:50:47.072Z,11.20
2018-01-30T13:53:15.226Z,11.60
2018-01-30T13:55:43.302Z,10.38
2018-01-30T13:58:11.440Z,14.02
2018-01-30T14:00:40.440Z,13.95
2018-01-30T14:03:08.558Z,15.95
2018-01-30T14:05:36.668Z,10.52
2018-01-30T14:08:05.597Z,11.45
2018-01-30T14:10:33.778Z,11.95
2018-01-30T14:13:01.935Z,13.68
2018-01-30T14:15:30.088Z,14.32
2018-01-30T14:17:58.962Z,9.77
2018-01-30T14:20:27.886Z,11.38
2018-01-30T14:22:55.991Z,10.65
2018-01-30T14:25:24.107Z,9.82
2018-01-30T14:27:53.139Z,10.43
2018-01-30T14:30:21.264Z,11.48
2018-01-30T14:32:49.369Z,9.38
2018-01-30T14:35:17.479Z,10.00
2018-01-30T14:37:45.643Z,9.15
2018-01-30T14:40:13.814Z,11.12
2018-01-30T14:42:41.940Z,9.98
2018-01-30T14:45:10.824Z,11.82
2018-01-30T14:47:39.699Z,11.30
2018-01-30T14:50:08.639Z,8.88
2018-01-30T14:52:36.831Z,14.45
2018-01-30T14:55:04.939Z,10.15
2018-01-30T14:57:33.847Z,9.80
2018-01-30T15:00:02.739Z,10.05
2018-01-30T15:02:31.635Z,9.95
2018-01-30T15:05:00.555Z,8.65
2018-01-30T15:07:28.631Z,6.60
2018-01-30T15:09:56.755Z,6.90
2018-01-30T15:12:25.639Z,9.23
2018-01-30T15:14:54.515Z,9.93
2018-01-30T15:17:22.621Z,12.07
2018-01-30T15:19:51.571Z,10.63
2018-01-30T15:22:19.787Z,8.77
2018-01-30T15:24:48.681Z,9.27
2018-01-30T15:27:17.569Z,11.18
2018-01-30T15:29:46.501Z,11.95
2018-01-30T15:32:14.643Z,10.98
2018-01-30T15:34:42.803Z,10.15
2018-01-30T15:37:11.675Z,10.75
2018-01-30T15:39:40.587Z,11.77
2018-01-30T15:42:09.475Z,10.40
2018-01-30T15:44:38.375Z,11.88
2018-01-30T15:47:06.483Z,9.90
2018-01-30T15:49:34.614Z,11.15
2018-01-30T15:52:03.611Z,9.70
2018-01-30T15:54:31.735Z,8.43
2018-01-30T15:56:59.831Z,9.02
2018-01-30T15:59:28.023Z,10.65
2018-01-30T16:01:57.128Z,10.60
2018-01-30T16:04:26.010Z,11.85
2018-01-30T16:06:54.854Z,9.60
2018-01-30T16:09:22.976Z,12.88
2018-01-30T16:11:51.119Z,12.75
2018-01-30T16:14:19.283Z,9.00
2018-01-30T16:16:47.443Z,10.43
2018-01-30T16:19:15.553Z,8.85
2018-01-30T16:21:44.655Z,10.57
2018-01-30T16:24:13.694Z,8.82
2018-01-30T16:26:41.783Z,8.75
2018-01-30T16:29:09.881Z,9.35
2018-01-30T16:31:38.808Z,7.37
2018-01-30T16:34:06.918Z,7.32
2018-01-30T16:36:35.039Z,8.23
2018-01-30T16:39:03.170Z,8.75
2018-01-30T16:41:31.295Z,7.97
2018-01-30T16:43:59.390Z,7.62
2018-01-30T16:46:27.535Z,9.65
2018-01-30T16:48:55.651Z,8.95
2018-01-30T16:51:24.538Z,9.32
2018-01-30T16:53:52.650Z,10.05
2018-01-30T16:56:21.518Z,9.85
2018-01-30T16:58:51.354Z,10.35
2018-01-30T17:01:20.234Z,8.30
2018-01-30T17:03:49.106Z,10.90
2018-01-30T17:06:17.212Z,12.68
2018-01-30T17:08:46.093Z,14.80
2018-01-30T17:11:14.972Z,14.27
2018-01-30T17:13:43.868Z,16.80
2018-01-30T17:16:12.744Z,13.25
2018-01-30T17:18:40.846Z,13.50
2018-01-30T17:21:09.018Z,14.52
2018-01-30T17:23:37.941Z,14.82
2018-01-30T17:26:06.094Z,12.90
2018-01-30T17:28:34.196Z,14.20
2018-01-30T17:31:02.332Z,12.40
2018-01-30T17:33:31.212Z,14.13
2018-01-30T17:36:00.105Z,12.70
2018-01-30T17:38:28.231Z,15.45
2018-01-30T17:40:56.345Z,16.83
2018-01-30T17:43:25.347Z,9.48
2018-01-30T17:45:54.242Z,11.68
2018-01-30T17:48:22.506Z,12.73
2018-01-30T17:50:51.404Z,11.85
2018-01-30T17:53:19.550Z,11.93
2018-01-30T17:55:48.458Z,13.62
2018-01-30T17:58:17.370Z,8.80
2018-01-30T18:00:45.492Z,9.00
2018-01-30T18:03:13.624Z,13.73
2018-01-30T18:05:41.755Z,12.55
2018-01-30T18:08:10.623Z,13.57
2018-01-30T18:10:38.748Z,11.57
2018-01-30T18:13:07.044Z,11.25
2018-01-30T18:15:35.177Z,12.07
2018-01-30T18:18:04.114Z,10.52
2018-01-30T18:20:32.204Z,9.35
2018-01-30T18:23:00.341Z,11.25
2018-01-30T18:25:28.441Z,12.57
2018-01-30T18:27:56.548Z,9.85
2018-01-30T18:30:25.425Z,9.00
2018-01-30T18:32:53.584Z,11.45
2018-01-30T18:35:21.688Z,12.68
2018-01-30T18:37:50.591Z,9.82
2018-01-30T18:40:19.479Z,11.25
2018-01-30T18:42:48.351Z,13.85
2018-01-30T18:45:17.287Z,10.82
2018-01-30T18:47:45.387Z,13.45
2018-01-30T18:50:13.497Z,11.75
2018-01-30T18:52:42.423Z,12.73
2018-01-30T18:55:10.527Z,14.98
2018-01-30T18:57:38.639Z,17.48
2018-01-30T19:00:07.542Z,14.05
2018-01-30T19:02:35.703Z,17.70
2018-01-30T19:05:04.591Z,14.95
2018-01-30T19:07:33.467Z,17.80
2018-01-30T19:10:02.367Z,16.48
2018-01-30T19:12:31.319Z,13.98
2018-01-30T19:14:59.407Z,13.68
2018-01-30T19:17:27.607Z,14.52
2018-01-30T19:19:56.599Z,11.68
2018-01-30T19:22:25.522Z,16.67
2018-01-30T19:24:53.619Z,14.48
2018-01-30T19:27:21.835Z,15.40
2018-01-30T19:29:50.735Z,17.25
2018-01-30T19:32:18.862Z,14.57
2018-01-30T19:34:47.031Z,17.08
2018-01-30T19:37:15.159Z,15.80
2018-01-30T19:39:44.021Z,20.12
2018-01-30T19:42:12.957Z,17.73
2018-01-30T19:44:41.064Z,16.25
2018-01-30T19:47:09.171Z,22.52
2018-01-30T19:49:38.276Z,20.10
2018-01-30T19:52:06.431Z,21.15
2018-01-30T19:54:35.338Z,18.92
2018-01-30T19:57:03.464Z,21.92
2018-01-30T19:59:31.590Z,20.05
2018-01-30T20:01:59.858Z,17.40
2018-01-30T20:04:28.018Z,18.60
2018-01-30T20:06:57.022Z,18.08
2018-01-30T20:09:25.910Z,19.67
2018-01-30T20:11:54.802Z,20.95
2018-01-30T20:14:23.694Z,18.52
2018-01-30T20:16:51.866Z,21.00
2018-01-30T20:19:20.750Z,21.52
2018-01-30T20:21:49.746Z,21.33
2018-01-30T20:24:18.623Z,22.70
2018-01-30T20:26:47.524Z,18.17
2018-01-30T20:29:16.414Z,20.35
2018-01-30T20:31:45.293Z,20.15
2018-01-30T20:34:14.192Z,19.15
2018-01-30T20:36:43.086Z,19.60
2018-01-30T20:39:11.981Z,18.55
2018-01-30T20:41:41.001Z,20.08
2018-01-30T20:44:09.134Z,19.15
2018-01-30T20:46:38.006Z,19.10
2018-01-30T20:49:06.110Z,20.33
2018-01-30T20:51:34.273Z,19.98
2018-01-30T20:54:03.302Z,19.80
2018-01-30T20:56:31.408Z,21.23
2018-01-30T20:58:59.519Z,21.67
2018-01-30T21:01:28.448Z,20.92
2018-01-30T21:03:56.581Z,21.48
2018-01-30T21:06:25.457Z,21.83
2018-01-30T21:08:54.329Z,22.05
2018-01-30T21:11:22.452Z,20.25
2018-01-30T21:13:50.618Z,21.95
2018-01-30T21:16:18.735Z,22.62
2018-01-30T21:18:46.950Z,23.98
2018-01-30T21:21:15.848Z,23.40
2018-01-30T21:23:43.951Z,22.85
2018-01-30T21:26:12.118Z,23.02
2018-01-30T21:28:40.292Z,22.92
2018-01-30T21:31:08.370Z,22.50
2018-01-30T21:33:36.711Z,23.85
2018-01-30T21:36:05.596Z,24.30
2018-01-30T21:38:34.519Z,24.40
2018-01-30T21:41:02.619Z,24.20
2018-01-30T21:43:30.746Z,23.83
2018-01-30T21:45:58.859Z,25.65
2018-01-30T21:48:26.967Z,23.50
2018-01-30T21:50:55.850Z,25.77
2018-01-30T21:53:24.152Z,25.23
2018-01-30T21:55:52.263Z,26.45
2018-01-30T21:58:20.395Z,26.37
2018-01-30T22:00:48.571Z,25.27
2018-01-30T22:03:17.467Z,26.92
2018-01-30T22:05:45.643Z,26.80
2018-01-30T22:08:13.755Z,26.12
2018-01-30T22:10:41.967Z,26.10
2018-01-30T22:13:10.857Z,27.98
2018-01-30T22:15:39.775Z,29.45
2018-01-30T22:18:07.889Z,26.42
2018-01-30T22:20:36.015Z,27.30
2018-01-30T22:23:04.179Z,26.75
2018-01-30T22:25:32.307Z,28.92
2018-01-30T22:28:00.415Z,28.83
2018-01-30T22:30:29.294Z,28.48
2018-01-30T22:32:58.193Z,29.58
2018-01-30T22:35:27.079Z,26.90
2018-01-30T22:37:55.977Z,29.95
2018-01-30T22:40:24.851Z,28.75
2018-01-30T22:42:53.757Z,28.20
2018-01-30T22:45:22.649Z,27.83
